SBI5504 UAAA-UNNT
Flight info
| Callsign | SBI5504 |
|---|---|
| Flight time | 1h 52m |
| Altitude | 35000 |
| Route | GOGDO P984 GENGA L143 ELSUT G121 RUBID G831 ORPAS |
| Aircraft | E170/M-SDE2E3FGHIRWXY/LB1 |
Departure
| Time | 2026-04-25 12:15 |
|---|---|
| Airport | Almaty International Airport (UAAA) |
Arrival
| Time | 2026-04-25 14:07 |
|---|---|
| Airport | Novosibirsk Tolmachevo Airport (UNNT) |
| Time | Latitude | Longitude | Altitude | Speed | Heading |
|---|---|---|---|---|---|
| 2026-04-25 12:15 | 43.49577 | 76.68597 | 16006 ft | 334 kts | 291° |
| 2026-04-25 12:15 | 43.50447 | 76.65608 | 16885 ft | 337 kts | 291° |
| 2026-04-25 12:15 | 43.51312 | 76.62571 | 17700 ft | 342 kts | 291° |
| 2026-04-25 12:16 | 43.53608 | 76.56925 | 19156 ft | 351 kts | 316° |
| 2026-04-25 12:16 | 43.55676 | 76.55112 | 19938 ft | 357 kts | 336° |
| 2026-04-25 12:16 | 43.58083 | 76.54180 | 20705 ft | 360 kts | 345° |
| 2026-04-25 12:16 | 43.60549 | 76.53457 | 21388 ft | 364 kts | 346° |
| 2026-04-25 12:17 | 43.63055 | 76.52805 | 22028 ft | 368 kts | 348° |
| 2026-04-25 12:17 | 43.65554 | 76.52221 | 22662 ft | 371 kts | 349° |
| 2026-04-25 12:17 | 43.68114 | 76.51673 | 23297 ft | 373 kts | 349° |
| 2026-04-25 12:17 | 43.68982 | 76.51496 | 23517 ft | 374 kts | 349° |
| 2026-04-25 12:18 | 43.78305 | 76.48521 | 25526 ft | 382 kts | 344° |
| 2026-04-25 12:18 | 43.80905 | 76.47659 | 26038 ft | 385 kts | 345° |
| 2026-04-25 12:19 | 43.85303 | 76.46476 | 26841 ft | 393 kts | 356° |
| 2026-04-25 12:19 | 43.88912 | 76.47496 | 27480 ft | 406 kts | 21° |
| 2026-04-25 12:19 | 43.91286 | 76.49673 | 27915 ft | 417 kts | 39° |
| 2026-04-25 12:20 | 43.93235 | 76.52716 | 28348 ft | 424 kts | 47° |
| 2026-04-25 12:20 | 43.95073 | 76.55951 | 28752 ft | 428 kts | 49° |
| 2026-04-25 12:20 | 43.96863 | 76.59205 | 29162 ft | 431 kts | 49° |
| 2026-04-25 12:20 | 43.98675 | 76.62515 | 29582 ft | 433 kts | 49° |
| 2026-04-25 12:21 | 44.00503 | 76.65864 | 29977 ft | 436 kts | 49° |
| 2026-04-25 12:21 | 44.02345 | 76.69258 | 30341 ft | 439 kts | 49° |
| 2026-04-25 12:21 | 44.04185 | 76.72664 | 30671 ft | 441 kts | 49° |
| 2026-04-25 12:21 | 44.06029 | 76.76100 | 30981 ft | 444 kts | 49° |
| 2026-04-25 12:22 | 44.07869 | 76.79550 | 31383 ft | 443 kts | 49° |
| 2026-04-25 12:22 | 44.09709 | 76.83015 | 31645 ft | 447 kts | 50° |
| 2026-04-25 12:22 | 44.11545 | 76.86499 | 32019 ft | 446 kts | 50° |
| 2026-04-25 12:22 | 44.13385 | 76.90013 | 32177 ft | 452 kts | 50° |
| 2026-04-25 12:23 | 44.15243 | 76.93562 | 32287 ft | 457 kts | 49° |
| 2026-04-25 12:23 | 44.19117 | 77.00687 | 32726 ft | 461 kts | 49° |
| 2026-04-25 12:23 | 44.21026 | 77.04202 | 33137 ft | 459 kts | 49° |
| 2026-04-25 12:24 | 44.22944 | 77.07746 | 33476 ft | 458 kts | 49° |
| 2026-04-25 12:24 | 44.24865 | 77.11303 | 33793 ft | 458 kts | 49° |
| 2026-04-25 12:24 | 44.26093 | 77.13580 | 33992 ft | 457 kts | 49° |
| 2026-04-25 12:24 | 44.27707 | 77.16579 | 34211 ft | 457 kts | 49° |
| 2026-04-25 12:25 | 44.29622 | 77.20138 | 34398 ft | 459 kts | 49° |
| 2026-04-25 12:25 | 44.31540 | 77.23707 | 34607 ft | 460 kts | 49° |
| 2026-04-25 12:25 | 44.33458 | 77.27281 | 34817 ft | 460 kts | 49° |
| 2026-04-25 12:25 | 44.35380 | 77.30868 | 35021 ft | 461 kts | 49° |
| 2026-04-25 12:26 | 44.37310 | 77.34473 | 35057 ft | 467 kts | 49° |
| 2026-04-25 12:26 | 44.41327 | 77.41642 | 35133 ft | 465 kts | 40° |
| 2026-04-25 12:26 | 44.43903 | 77.44245 | 35116 ft | 452 kts | 21° |
| 2026-04-25 12:27 | 44.46801 | 77.45642 | 35154 ft | 445 kts | 10° |
| 2026-04-25 12:27 | 44.52813 | 77.47648 | 35187 ft | 445 kts | 9° |
| 2026-04-25 12:27 | 44.55829 | 77.48640 | 35079 ft | 445 kts | 9° |
| 2026-04-25 12:28 | 44.58829 | 77.49634 | 35101 ft | 443 kts | 9° |
| 2026-04-25 12:28 | 44.64831 | 77.51655 | 35109 ft | 444 kts | 9° |
| 2026-04-25 12:29 | 44.70831 | 77.53684 | 35117 ft | 443 kts | 9° |
| 2026-04-25 12:29 | 44.76830 | 77.55716 | 35111 ft | 443 kts | 9° |
| 2026-04-25 12:30 | 44.81809 | 77.57406 | 35113 ft | 443 kts | 9° |
| 2026-04-25 12:30 | 44.88810 | 77.59787 | 35110 ft | 443 kts | 9° |
| 2026-04-25 12:31 | 44.94792 | 77.61826 | 35109 ft | 442 kts | 9° |
| 2026-04-25 12:31 | 45.00774 | 77.63869 | 35106 ft | 442 kts | 9° |
| 2026-04-25 12:32 | 45.06747 | 77.65931 | 35109 ft | 442 kts | 10° |
| 2026-04-25 12:32 | 45.12672 | 77.68048 | 35108 ft | 442 kts | 10° |
| 2026-04-25 12:33 | 45.18675 | 77.70189 | 35106 ft | 442 kts | 9° |
| 2026-04-25 12:33 | 45.24633 | 77.72314 | 35105 ft | 441 kts | 9° |
| 2026-04-25 12:34 | 45.30584 | 77.74441 | 35105 ft | 441 kts | 9° |
| 2026-04-25 12:34 | 45.36543 | 77.76575 | 35107 ft | 441 kts | 9° |
| 2026-04-25 12:35 | 45.42444 | 77.78692 | 35112 ft | 440 kts | 9° |
| 2026-04-25 12:35 | 45.48427 | 77.79676 | 35136 ft | 428 kts | 349° |
| 2026-04-25 12:36 | 45.54337 | 77.78495 | 35092 ft | 428 kts | 348° |
| 2026-04-25 12:36 | 45.60213 | 77.77218 | 35100 ft | 427 kts | 348° |
| 2026-04-25 12:37 | 45.66090 | 77.75944 | 35101 ft | 427 kts | 348° |
| 2026-04-25 12:37 | 45.71961 | 77.74672 | 35101 ft | 427 kts | 348° |
| 2026-04-25 12:38 | 45.77836 | 77.73396 | 35108 ft | 427 kts | 348° |
| 2026-04-25 12:38 | 45.83717 | 77.72117 | 35107 ft | 427 kts | 348° |
| 2026-04-25 12:39 | 45.89585 | 77.70839 | 35111 ft | 427 kts | 348° |
| 2026-04-25 12:39 | 45.95417 | 77.69566 | 35105 ft | 426 kts | 348° |
| 2026-04-25 12:40 | 46.01284 | 77.68281 | 35108 ft | 426 kts | 348° |
| 2026-04-25 12:40 | 46.07156 | 77.66993 | 35106 ft | 426 kts | 348° |
| 2026-04-25 12:41 | 46.13026 | 77.65702 | 35105 ft | 426 kts | 348° |
| 2026-04-25 12:41 | 46.18885 | 77.64412 | 35104 ft | 426 kts | 348° |
| 2026-04-25 12:42 | 46.24751 | 77.63137 | 35109 ft | 427 kts | 351° |
| 2026-04-25 12:42 | 46.30635 | 77.64501 | 35138 ft | 442 kts | 16° |
| 2026-04-25 12:43 | 46.36359 | 77.67866 | 35097 ft | 443 kts | 18° |
| 2026-04-25 12:43 | 46.44906 | 77.72989 | 35106 ft | 443 kts | 18° |
| 2026-04-25 12:44 | 46.50608 | 77.76407 | 35110 ft | 443 kts | 18° |
| 2026-04-25 12:45 | 46.59155 | 77.81544 | 35112 ft | 443 kts | 18° |
| 2026-04-25 12:45 | 46.67701 | 77.86694 | 35113 ft | 442 kts | 18° |
| 2026-04-25 12:46 | 46.73400 | 77.90089 | 35105 ft | 442 kts | 17° |
| 2026-04-25 12:46 | 46.79096 | 77.93492 | 35113 ft | 442 kts | 18° |
| 2026-04-25 12:47 | 46.84751 | 77.96882 | 35107 ft | 442 kts | 18° |
| 2026-04-25 12:47 | 46.90444 | 78.00302 | 35107 ft | 442 kts | 18° |
| 2026-04-25 12:48 | 46.92329 | 78.01436 | 35113 ft | 441 kts | 18° |
| 2026-04-25 12:48 | 46.99586 | 78.05811 | 35111 ft | 441 kts | 18° |
| 2026-04-25 12:49 | 47.12737 | 78.13772 | 35120 ft | 441 kts | 18° |
| 2026-04-25 12:50 | 47.18402 | 78.17215 | 35115 ft | 440 kts | 18° |
| 2026-04-25 12:50 | 47.24069 | 78.20667 | 35113 ft | 440 kts | 18° |
| 2026-04-25 12:51 | 47.29723 | 78.24119 | 35119 ft | 439 kts | 18° |
| 2026-04-25 12:51 | 47.35334 | 78.27552 | 35116 ft | 439 kts | 18° |
| 2026-04-25 12:52 | 47.40975 | 78.31013 | 35118 ft | 439 kts | 18° |
| 2026-04-25 12:52 | 47.46612 | 78.34479 | 35115 ft | 438 kts | 18° |
| 2026-04-25 12:53 | 47.49430 | 78.36214 | 35114 ft | 438 kts | 18° |
| 2026-04-25 12:54 | 47.63413 | 78.44858 | 35112 ft | 438 kts | 18° |
| 2026-04-25 12:54 | 47.69029 | 78.48343 | 35111 ft | 437 kts | 18° |
| 2026-04-25 12:55 | 47.73691 | 78.51243 | 35110 ft | 437 kts | 18° |
| 2026-04-25 12:55 | 47.80212 | 78.55308 | 35110 ft | 437 kts | 18° |
| 2026-04-25 12:56 | 47.85824 | 78.58816 | 35113 ft | 437 kts | 18° |
| 2026-04-25 12:56 | 47.91438 | 78.62334 | 35113 ft | 437 kts | 18° |
| 2026-04-25 12:57 | 47.97041 | 78.65852 | 35115 ft | 436 kts | 18° |
| 2026-04-25 12:57 | 48.02614 | 78.69359 | 35115 ft | 437 kts | 18° |
| 2026-04-25 12:58 | 48.08215 | 78.72893 | 35114 ft | 437 kts | 18° |
| 2026-04-25 12:58 | 48.13823 | 78.76439 | 35118 ft | 437 kts | 18° |
| 2026-04-25 12:59 | 48.19433 | 78.79996 | 35117 ft | 438 kts | 19° |
| 2026-04-25 12:59 | 48.25045 | 78.83563 | 35125 ft | 438 kts | 19° |
| 2026-04-25 13:00 | 48.28759 | 78.85928 | 35129 ft | 438 kts | 19° |
| 2026-04-25 13:00 | 48.36219 | 78.90689 | 35127 ft | 438 kts | 19° |
| 2026-04-25 13:01 | 48.41833 | 78.94277 | 35127 ft | 437 kts | 19° |
| 2026-04-25 13:01 | 48.47442 | 78.97868 | 35128 ft | 438 kts | 19° |
| 2026-04-25 13:02 | 48.53055 | 79.01472 | 35131 ft | 438 kts | 19° |
| 2026-04-25 13:02 | 48.58676 | 79.05090 | 35133 ft | 439 kts | 19° |
| 2026-04-25 13:03 | 48.64263 | 79.08693 | 35129 ft | 439 kts | 19° |
| 2026-04-25 13:03 | 48.69897 | 79.12336 | 35130 ft | 440 kts | 19° |
| 2026-04-25 13:04 | 48.75532 | 79.15989 | 35131 ft | 440 kts | 19° |
| 2026-04-25 13:04 | 48.81172 | 79.19654 | 35125 ft | 441 kts | 19° |
| 2026-04-25 13:05 | 48.86823 | 79.23334 | 35124 ft | 441 kts | 19° |
| 2026-04-25 13:05 | 48.92464 | 79.27019 | 35123 ft | 442 kts | 19° |
| 2026-04-25 13:06 | 48.98082 | 79.30697 | 35119 ft | 442 kts | 19° |
| 2026-04-25 13:06 | 49.03739 | 79.34409 | 35113 ft | 442 kts | 19° |
| 2026-04-25 13:07 | 49.09396 | 79.38130 | 35113 ft | 443 kts | 19° |
| 2026-04-25 13:07 | 49.15054 | 79.41862 | 35115 ft | 443 kts | 20° |
| 2026-04-25 13:08 | 49.20722 | 79.45609 | 35114 ft | 443 kts | 20° |
| 2026-04-25 13:08 | 49.26390 | 79.49367 | 35109 ft | 444 kts | 20° |
| 2026-04-25 13:09 | 49.32060 | 79.53134 | 35107 ft | 444 kts | 20° |
| 2026-04-25 13:09 | 49.37694 | 79.56888 | 35106 ft | 444 kts | 20° |
| 2026-04-25 13:10 | 49.43375 | 79.60682 | 35108 ft | 445 kts | 20° |
| 2026-04-25 13:10 | 49.49054 | 79.64484 | 35106 ft | 445 kts | 20° |
| 2026-04-25 13:11 | 49.54743 | 79.68303 | 35110 ft | 445 kts | 20° |
| 2026-04-25 13:11 | 49.60432 | 79.72132 | 35107 ft | 446 kts | 20° |
| 2026-04-25 13:12 | 49.66120 | 79.75969 | 35110 ft | 446 kts | 20° |
| 2026-04-25 13:12 | 49.70854 | 79.79174 | 35109 ft | 446 kts | 20° |
| 2026-04-25 13:13 | 49.77471 | 79.83665 | 35108 ft | 447 kts | 20° |
| 2026-04-25 13:13 | 49.83171 | 79.87543 | 35106 ft | 447 kts | 21° |
| 2026-04-25 13:14 | 49.88870 | 79.91431 | 35112 ft | 447 kts | 21° |
| 2026-04-25 13:14 | 49.94573 | 79.95331 | 35114 ft | 448 kts | 21° |
| 2026-04-25 13:15 | 50.00238 | 79.99215 | 35111 ft | 448 kts | 21° |
| 2026-04-25 13:15 | 50.05948 | 80.03140 | 35114 ft | 448 kts | 21° |
| 2026-04-25 13:16 | 50.09770 | 80.05774 | 35117 ft | 448 kts | 21° |
| 2026-04-25 13:16 | 50.17149 | 80.10870 | 35123 ft | 449 kts | 21° |
| 2026-04-25 13:17 | 50.22834 | 80.14808 | 35128 ft | 449 kts | 21° |
| 2026-04-25 13:17 | 50.28549 | 80.18778 | 35131 ft | 449 kts | 21° |
| 2026-04-25 13:18 | 50.34266 | 80.22759 | 35133 ft | 450 kts | 21° |
| 2026-04-25 13:18 | 50.39932 | 80.26951 | 35136 ft | 451 kts | 24° |
| 2026-04-25 13:19 | 50.42742 | 80.29168 | 35126 ft | 451 kts | 24° |
| 2026-04-25 13:19 | 50.50153 | 80.34943 | 35127 ft | 451 kts | 24° |
| 2026-04-25 13:20 | 50.56698 | 80.40017 | 35121 ft | 451 kts | 24° |
| 2026-04-25 13:20 | 50.62336 | 80.44398 | 35116 ft | 451 kts | 24° |
| 2026-04-25 13:21 | 50.67972 | 80.48789 | 35115 ft | 452 kts | 24° |
| 2026-04-25 13:21 | 50.73609 | 80.53192 | 35116 ft | 452 kts | 24° |
| 2026-04-25 13:22 | 50.79242 | 80.57606 | 35112 ft | 452 kts | 24° |
| 2026-04-25 13:23 | 50.81107 | 80.59070 | 35118 ft | 452 kts | 24° |
| 2026-04-25 13:23 | 50.93494 | 80.68825 | 35113 ft | 453 kts | 24° |
| 2026-04-25 13:24 | 50.99212 | 80.73348 | 35113 ft | 453 kts | 24° |
| 2026-04-25 13:24 | 51.04805 | 80.77785 | 35114 ft | 453 kts | 24° |
| 2026-04-25 13:25 | 51.09536 | 80.81546 | 35113 ft | 453 kts | 25° |
| 2026-04-25 13:26 | 51.21480 | 80.91082 | 35109 ft | 454 kts | 25° |
| 2026-04-25 13:26 | 51.27156 | 80.95549 | 35113 ft | 454 kts | 24° |
| 2026-04-25 13:27 | 51.32855 | 80.99950 | 35111 ft | 454 kts | 24° |
| 2026-04-25 13:27 | 51.38346 | 81.04222 | 35113 ft | 454 kts | 24° |
| 2026-04-25 13:28 | 51.44032 | 81.08662 | 35113 ft | 454 kts | 24° |
| 2026-04-25 13:28 | 51.49713 | 81.13112 | 35113 ft | 454 kts | 24° |
| 2026-04-25 13:29 | 51.55402 | 81.17581 | 35117 ft | 454 kts | 24° |
| 2026-04-25 13:29 | 51.61362 | 81.20652 | 35145 ft | 451 kts | 7° |
| 2026-04-25 13:30 | 51.70633 | 81.22792 | 35100 ft | 450 kts | 6° |
| 2026-04-25 13:31 | 51.79940 | 81.24954 | 35103 ft | 450 kts | 6° |
| 2026-04-25 13:31 | 51.86144 | 81.26411 | 35109 ft | 450 kts | 6° |
| 2026-04-25 13:32 | 51.92352 | 81.27873 | 35112 ft | 451 kts | 6° |
| 2026-04-25 13:32 | 51.98554 | 81.29338 | 35107 ft | 450 kts | 6° |
| 2026-04-25 13:33 | 52.04755 | 81.30807 | 35104 ft | 451 kts | 6° |
| 2026-04-25 13:33 | 52.10969 | 81.32283 | 35101 ft | 451 kts | 6° |
| 2026-04-25 13:34 | 52.17180 | 81.33762 | 35104 ft | 451 kts | 6° |
| 2026-04-25 13:34 | 52.23348 | 81.35236 | 35103 ft | 450 kts | 6° |
| 2026-04-25 13:35 | 52.29562 | 81.36724 | 35112 ft | 450 kts | 6° |
| 2026-04-25 13:35 | 52.35760 | 81.38214 | 35107 ft | 450 kts | 6° |
| 2026-04-25 13:36 | 52.41958 | 81.39707 | 35101 ft | 450 kts | 6° |
| 2026-04-25 13:36 | 52.48158 | 81.41205 | 35098 ft | 450 kts | 6° |
| 2026-04-25 13:37 | 52.54309 | 81.42695 | 35097 ft | 450 kts | 6° |
| 2026-04-25 13:37 | 52.60503 | 81.44200 | 35110 ft | 449 kts | 6° |
| 2026-04-25 13:38 | 52.66698 | 81.45709 | 35101 ft | 450 kts | 6° |
| 2026-04-25 13:38 | 52.72889 | 81.47222 | 35102 ft | 449 kts | 6° |
| 2026-04-25 13:39 | 52.78036 | 81.48483 | 35098 ft | 449 kts | 6° |
| 2026-04-25 13:39 | 52.84218 | 81.50003 | 35100 ft | 449 kts | 6° |
| 2026-04-25 13:40 | 52.91403 | 81.51773 | 35097 ft | 449 kts | 6° |
| 2026-04-25 13:40 | 52.97581 | 81.53300 | 35100 ft | 449 kts | 6° |
| 2026-04-25 13:41 | 53.09696 | 81.56307 | 35097 ft | 449 kts | 6° |
| 2026-04-25 13:42 | 53.15843 | 81.57840 | 35097 ft | 449 kts | 6° |
| 2026-04-25 13:42 | 53.22018 | 81.59385 | 35096 ft | 449 kts | 6° |
| 2026-04-25 13:43 | 53.28208 | 81.60937 | 35096 ft | 450 kts | 6° |
| 2026-04-25 13:43 | 53.34396 | 81.62494 | 35096 ft | 450 kts | 6° |
| 2026-04-25 13:44 | 53.40569 | 81.64051 | 34795 ft | 444 kts | 6° |
| 2026-04-25 13:44 | 53.43544 | 81.64800 | 34559 ft | 442 kts | 6° |
| 2026-04-25 13:44 | 53.46583 | 81.65565 | 34319 ft | 442 kts | 6° |
| 2026-04-25 13:44 | 53.49629 | 81.66334 | 34085 ft | 442 kts | 6° |
| 2026-04-25 13:45 | 53.52676 | 81.67105 | 33815 ft | 443 kts | 6° |
| 2026-04-25 13:45 | 53.55729 | 81.67876 | 33542 ft | 445 kts | 6° |
| 2026-04-25 13:45 | 53.58784 | 81.68650 | 33628 ft | 442 kts | 6° |
| 2026-04-25 13:45 | 53.61817 | 81.69423 | 32875 ft | 452 kts | 7° |
| 2026-04-25 13:46 | 53.64920 | 81.70225 | 32309 ft | 450 kts | 7° |
| 2026-04-25 13:46 | 53.68026 | 81.71032 | 31678 ft | 452 kts | 7° |
| 2026-04-25 13:46 | 53.71133 | 81.71840 | 31053 ft | 450 kts | 7° |
| 2026-04-25 13:46 | 53.74214 | 81.72643 | 30460 ft | 446 kts | 7° |
| 2026-04-25 13:47 | 53.77271 | 81.73441 | 29841 ft | 443 kts | 7° |
| 2026-04-25 13:47 | 53.80303 | 81.74233 | 29300 ft | 438 kts | 7° |
| 2026-04-25 13:47 | 53.83316 | 81.75020 | 28707 ft | 436 kts | 7° |
| 2026-04-25 13:47 | 53.86302 | 81.75801 | 28114 ft | 434 kts | 7° |
| 2026-04-25 13:48 | 53.89237 | 81.76572 | 27570 ft | 430 kts | 7° |
| 2026-04-25 13:48 | 53.92186 | 81.77348 | 26981 ft | 428 kts | 7° |
| 2026-04-25 13:48 | 53.95124 | 81.78123 | 26408 ft | 426 kts | 7° |
| 2026-04-25 13:48 | 53.98042 | 81.78895 | 25862 ft | 423 kts | 7° |
| 2026-04-25 13:49 | 54.00941 | 81.79664 | 25292 ft | 420 kts | 7° |
| 2026-04-25 13:49 | 54.03728 | 81.81108 | 24778 ft | 421 kts | 26° |
| 2026-04-25 13:49 | 54.06076 | 81.84051 | 24264 ft | 419 kts | 42° |
| 2026-04-25 13:49 | 54.08096 | 81.87646 | 23660 ft | 419 kts | 49° |
| 2026-04-25 13:50 | 54.09990 | 81.91376 | 23105 ft | 414 kts | 47° |
| 2026-04-25 13:50 | 54.11974 | 81.94915 | 22558 ft | 412 kts | 44° |
| 2026-04-25 13:50 | 54.14022 | 81.98319 | 22018 ft | 410 kts | 43° |
| 2026-04-25 13:50 | 54.16097 | 82.01645 | 21478 ft | 409 kts | 42° |
| 2026-04-25 13:51 | 54.18181 | 82.04932 | 20935 ft | 407 kts | 41° |
| 2026-04-25 13:51 | 54.20261 | 82.08189 | 20395 ft | 405 kts | 41° |
| 2026-04-25 13:51 | 54.22335 | 82.11434 | 19864 ft | 403 kts | 41° |
| 2026-04-25 13:51 | 54.24401 | 82.14665 | 19330 ft | 401 kts | 41° |
| 2026-04-25 13:52 | 54.26432 | 82.17845 | 18799 ft | 399 kts | 41° |
| 2026-04-25 13:52 | 54.28477 | 82.21050 | 18253 ft | 398 kts | 41° |
| 2026-04-25 13:52 | 54.30507 | 82.24239 | 17745 ft | 394 kts | 41° |
| 2026-04-25 13:52 | 54.32518 | 82.27404 | 17208 ft | 392 kts | 41° |
| 2026-04-25 13:53 | 54.34521 | 82.30561 | 16703 ft | 390 kts | 41° |
| 2026-04-25 13:53 | 54.35838 | 82.32639 | 16366 ft | 388 kts | 41° |
| 2026-04-25 13:53 | 54.37820 | 82.35769 | 15847 ft | 385 kts | 40° |
| 2026-04-25 13:53 | 54.39782 | 82.38874 | 15339 ft | 382 kts | 40° |
| 2026-04-25 13:54 | 54.41730 | 82.41960 | 14827 ft | 379 kts | 40° |
| 2026-04-25 13:54 | 54.43648 | 82.45006 | 14325 ft | 372 kts | 40° |
| 2026-04-25 13:54 | 54.45525 | 82.47992 | 13828 ft | 365 kts | 40° |
| 2026-04-25 13:54 | 54.47377 | 82.50941 | 13365 ft | 357 kts | 40° |
| 2026-04-25 13:55 | 54.49181 | 82.53817 | 12894 ft | 351 kts | 40° |
| 2026-04-25 13:55 | 54.50953 | 82.56646 | 12428 ft | 345 kts | 40° |
| 2026-04-25 13:55 | 54.52741 | 82.59258 | 11981 ft | 336 kts | 33° |
| 2026-04-25 13:55 | 54.54642 | 82.61547 | 11543 ft | 331 kts | 30° |
| 2026-04-25 13:56 | 54.56546 | 82.63723 | 11105 ft | 327 kts | 30° |
| 2026-04-25 13:56 | 54.58426 | 82.65878 | 10674 ft | 323 kts | 30° |
| 2026-04-25 13:56 | 54.60271 | 82.68009 | 10243 ft | 320 kts | 30° |
| 2026-04-25 13:56 | 54.62120 | 82.70159 | 9802 ft | 316 kts | 31° |
| 2026-04-25 13:57 | 54.63907 | 82.72241 | 9417 ft | 311 kts | 31° |
| 2026-04-25 13:57 | 54.65115 | 82.73650 | 9128 ft | 309 kts | 31° |
| 2026-04-25 13:57 | 54.67454 | 82.76383 | 8585 ft | 304 kts | 32° |
| 2026-04-25 13:57 | 54.69198 | 82.78424 | 8168 ft | 297 kts | 32° |
| 2026-04-25 13:58 | 54.70882 | 82.80399 | 7799 ft | 290 kts | 32° |
| 2026-04-25 13:58 | 54.72544 | 82.82349 | 7413 ft | 288 kts | 33° |
| 2026-04-25 13:58 | 54.74204 | 82.84296 | 7028 ft | 287 kts | 33° |
| 2026-04-25 13:58 | 54.75848 | 82.86228 | 6648 ft | 285 kts | 33° |
| 2026-04-25 13:59 | 54.77489 | 82.88159 | 6258 ft | 283 kts | 34° |
| 2026-04-25 13:59 | 54.79109 | 82.90070 | 5890 ft | 281 kts | 34° |
| 2026-04-25 13:59 | 54.80722 | 82.91972 | 5514 ft | 279 kts | 34° |
| 2026-04-25 13:59 | 54.82289 | 82.93821 | 5287 ft | 272 kts | 34° |
| 2026-04-25 14:00 | 54.83831 | 82.95703 | 5051 ft | 266 kts | 37° |
| 2026-04-25 14:00 | 54.85218 | 82.97674 | 4961 ft | 256 kts | 40° |
| 2026-04-25 14:00 | 54.86580 | 82.99662 | 4980 ft | 256 kts | 40° |
| 2026-04-25 14:00 | 54.87964 | 83.01648 | 5035 ft | 261 kts | 39° |
| 2026-04-25 14:01 | 54.89374 | 83.03650 | 5036 ft | 263 kts | 39° |
| 2026-04-25 14:01 | 54.90806 | 83.05657 | 4958 ft | 265 kts | 36° |
| 2026-04-25 14:01 | 54.92531 | 83.06819 | 4492 ft | 267 kts | 0° |
| 2026-04-25 14:01 | 54.94253 | 83.06092 | 4312 ft | 251 kts | 324° |
| 2026-04-25 14:02 | 54.95488 | 83.04079 | 4085 ft | 240 kts | 305° |
| 2026-04-25 14:02 | 54.96478 | 83.01762 | 3788 ft | 238 kts | 302° |
| 2026-04-25 14:02 | 54.97480 | 82.99458 | 3504 ft | 238 kts | 304° |
| 2026-04-25 14:02 | 54.98170 | 82.97981 | 3318 ft | 237 kts | 306° |
| 2026-04-25 14:03 | 54.99592 | 82.95106 | 2888 ft | 227 kts | 307° |
| 2026-04-25 14:03 | 55.00584 | 82.93139 | 2592 ft | 211 kts | 307° |
| 2026-04-25 14:03 | 55.01524 | 82.91279 | 2330 ft | 198 kts | 307° |
| 2026-04-25 14:03 | 55.02396 | 82.89540 | 2186 ft | 184 kts | 307° |
| 2026-04-25 14:04 | 55.03127 | 82.87794 | 2053 ft | 178 kts | 285° |
| 2026-04-25 14:04 | 55.03171 | 82.85745 | 2022 ft | 159 kts | 258° |
| 2026-04-25 14:04 | 55.02945 | 82.83867 | 2190 ft | 162 kts | 254° |
| 2026-04-25 14:04 | 55.02740 | 82.81893 | 1986 ft | 165 kts | 259° |
| 2026-04-25 14:05 | 55.02593 | 82.79984 | 1754 ft | 153 kts | 258° |
| 2026-04-25 14:05 | 55.02424 | 82.78208 | 1562 ft | 141 kts | 257° |
| 2026-04-25 14:05 | 55.02280 | 82.76588 | 1376 ft | 132 kts | 258° |
| 2026-04-25 14:05 | 55.02140 | 82.75005 | 1213 ft | 134 kts | 258° |
| 2026-04-25 14:06 | 55.01992 | 82.73375 | 1039 ft | 136 kts | 258° |
| 2026-04-25 14:06 | 55.01833 | 82.71737 | 899 ft | 139 kts | 259° |
| 2026-04-25 14:06 | 55.01698 | 82.70034 | 660 ft | 145 kts | 260° |
| 2026-04-25 14:06 | 55.01543 | 82.68341 | 451 ft | 139 kts | 259° |
| 2026-04-25 14:07 | 55.01395 | 82.66773 | 373 ft | 118 kts | 262° |
| 2026-04-25 14:07 | 55.01299 | 82.65685 | 370 ft | 61 kts | 262° |
| 2026-04-25 14:07 | 55.01252 | 82.65169 | 371 ft | 19 kts | 264° |
| 2026-04-25 14:07 | 55.01205 | 82.65050 | 370 ft | 12 kts | 179° |
| 2026-04-25 14:08 | 55.01119 | 82.65080 | 370 ft | 13 kts | 167° |
| 2026-04-25 14:08 | 55.01024 | 82.65099 | 371 ft | 15 kts | 173° |
| 2026-04-25 14:08 | 55.00938 | 82.65122 | 371 ft | 5 kts | 166° |
| 2026-04-25 14:08 | 55.00892 | 82.65145 | 371 ft | 7 kts | 132° |
| 2026-04-25 14:09 | 55.00880 | 82.65239 | 371 ft | 9 kts | 86° |
| 2026-04-25 14:09 | 55.00890 | 82.65362 | 371 ft | 12 kts | 80° |
| 2026-04-25 14:09 | 55.00903 | 82.65500 | 371 ft | 12 kts | 81° |
| 2026-04-25 14:09 | 55.00912 | 82.65600 | 371 ft | 13 kts | 81° |
| 2026-04-25 14:10 | 55.00932 | 82.65800 | 371 ft | 10 kts | 82° |
| 2026-04-25 14:10 | 55.00940 | 82.65914 | 371 ft | 11 kts | 84° |
| 2026-04-25 14:10 | 55.00956 | 82.66048 | 371 ft | 10 kts | 75° |
| 2026-04-25 14:10 | 55.00978 | 82.66170 | 371 ft | 7 kts | 60° |
| 2026-04-25 14:11 | 55.00998 | 82.66258 | 371 ft | 9 kts | 72° |
| 2026-04-25 14:11 | 55.01020 | 82.66382 | 371 ft | 12 kts | 72° |
| 2026-04-25 14:11 | 55.01046 | 82.66501 | 371 ft | 11 kts | 67° |
| 2026-04-25 14:11 | 55.01074 | 82.66614 | 371 ft | 11 kts | 66° |
| 2026-04-25 14:12 | 55.01113 | 82.66661 | 371 ft | 6 kts | 12° |
| 2026-04-25 14:12 | 55.01126 | 82.66662 | 371 ft | 3 kts | 343° |
| 2026-04-25 14:12 | 55.01147 | 82.66597 | 371 ft | 9 kts | 263° |
| 2026-04-25 14:12 | 55.01132 | 82.66498 | 371 ft | 7 kts | 252° |
| 2026-04-25 14:13 | 55.01100 | 82.66471 | 371 ft | 1 kts | 166° |
| 2026-04-25 14:13 | 55.01089 | 82.66475 | 371 ft | 0 kts | 170° |